Flugplatz Böhlen

Für EDOE sind keine METAR/TAF Berichte vorhanden.
Es werden die Flugwettermeldungen vom Flugplatz Leipzig Halle in 24 km Entfernung angezeigt.

Bericht für EDDP

vom 19.11. um 10:20 UTC

Wind 13 kt aus 210°

Sichtweite 10 km oder mehr

gute Sicht, keine Wolken < 5000 ft, keine CB, keine Wettererscheinungen (CAVOK)

Temperatur 7.0°C

Taupunkt 3.0°C

Luftfeuchtigkeit 76%

Luftdruck 1016 hPa

keine wesentliche Wetteränderung innerhalb den nächsten 2 Stunden zu erwarten

EDDP 191020Z 21013KT CAVOK 07/03 Q1016 NOSIG

Prognose für EDDP

vom 19.11. um 00:00 UTC

Zwischen 00:00 UTC und 00:00 UTC

Wind 14 kt aus 200°

Sichtweite 10 km oder mehr

aufgebrochene Bewölkung in 3000 ft


Zwischen 00:00 und 00:00 UTC übergehend zu

Wind 9 kt aus 210°

Sichtweite 10 km oder mehr

aufgebrochene Bewölkung in 3000 ft


Zwischen 00:00 und 00:00 UTC übergehend zu

Wind 4 kt aus 210°

Sichtweite 10 km oder mehr

aufgebrochene Bewölkung in 3000 ft


Zwischen 00:00 UTC und 00:00 UTC zeitweise

Sichtweite 4000 m

schwacher Regen


Zwischen 00:00 und 00:00 UTC übergehend zu

Wind 4 kt aus 210°

Sichtweite 10 km oder mehr

aufgebrochene Bewölkung in 1200 ft


Am 20.11. zwischen 00:00 und 00:00 UTC übergehend zu

Wind 4 kt aus 210°

Sichtweite 10 km oder mehr

aufgebrochene Bewölkung in 800 ft

TAF EDDP 190500Z 1906/2006 20014KT 9999 BKN030 BECMG 1907/1910 21009KT BECMG 1913/1915 21004KT TEMPO 1921/2006 4000 -RA BECMG 1922/1924 BKN012 BECMG 2001/2003 BKN008
Impressum